Time;durP1;ratioP1;P1;durP2;ratioP2;P2;SDS_P1;SDS_P2;PMS_P1;PMS_P2;Temp;Humidity;BMP_temperature;BMP_pressure;BME280_temperature;BME280_humidity;BME280_pressure;Samples;Min_cycle;Max_cycle;Signal;HPM_P1;HPM_P2
2023/10/01 00:00:36;;;;;;;9.73;5.30;;;;;;;12.97;86.41;102326.44;4954572;28;20122;-82
2023/10/01 00:03:05;;;;;;;9.75;5.35;;;;;;;12.96;86.57;102330.78;4942515;28;20034;-82
2023/10/01 00:05:30;;;;;;;8.30;5.03;;;;;;;12.94;86.65;102323.84;4953256;29;20027;-82
2023/10/01 00:07:55;;;;;;;9.60;5.20;;;;;;;12.92;86.46;102323.00;4943377;28;20034;-82
2023/10/01 00:10:22;;;;;;;8.40;5.22;;;;;;;12.90;86.71;102326.50;4954332;29;20035;-82
2023/10/01 00:12:50;;;;;;;8.38;5.13;;;;;;;12.88;86.75;102333.47;4953610;28;20027;-82
2023/10/01 00:15:21;;;;;;;9.05;5.47;;;;;;;12.86;86.92;102331.78;4950939;29;20070;-82
2023/10/01 00:17:50;;;;;;;7.63;5.18;;;;;;;12.85;86.81;102325.66;4954347;28;20041;-82
2023/10/01 00:20:22;;;;;;;9.27;5.85;;;;;;;12.86;86.84;102323.94;4939517;28;20019;-82
2023/10/01 00:22:54;;;;;;;7.70;4.95;;;;;;;12.85;86.95;102328.28;4941840;28;20035;-82
2023/10/01 00:25:21;;;;;;;;;;;;;;;12.90;86.53;102329.09;4945024;29;20027;-82
2023/10/01 00:27:47;;;;;;;8.82;4.97;;;;;;;12.84;86.97;102329.16;4950072;29;21336;-82
2023/10/01 00:30:12;;;;;;;8.82;5.00;;;;;;;12.85;87.21;102333.50;4945255;29;20114;-82
2023/10/01 00:32:39;;;;;;;9.20;5.57;;;;;;;12.85;87.46;102341.34;4953621;29;20530;-82
2023/10/01 00:35:06;;;;;;;9.68;5.70;;;;;;;12.85;87.54;102336.13;4943082;28;20063;-82
2023/10/01 00:37:33;;;;;;;8.20;5.35;;;;;;;12.86;87.27;102334.38;4949825;29;20040;-82
2023/10/01 00:39:59;;;;;;;8.82;5.47;;;;;;;12.85;87.34;102328.28;4945773;29;20033;-82
2023/10/01 00:42:26;;;;;;;8.68;5.38;;;;;;;12.84;87.38;102325.69;4953138;28;20065;-82
2023/10/01 00:44:56;;;;;;;8.25;5.55;;;;;;;12.83;87.51;102318.75;4950749;28;20034;-82
2023/10/01 00:47:21;;;;;;;10.07;5.32;;;;;;;12.82;87.60;102320.47;4953633;28;20030;-82
2023/10/01 00:49:48;;;;;;;9.60;5.53;;;;;;;12.82;87.33;102322.25;4944259;28;20031;-82
2023/10/01 00:52:15;;;;;;;10.65;5.30;;;;;;;12.81;87.76;102321.34;4952387;29;20050;-82
2023/10/01 00:54:40;;;;;;;7.95;5.03;;;;;;;12.79;87.74;102315.31;4948339;29;20042;-82
2023/10/01 00:57:05;;;;;;;9.52;5.22;;;;;;;12.78;87.43;102315.31;4938408;28;20667;-81
2023/10/01 00:59:33;;;;;;;8.82;5.40;;;;;;;12.73;87.79;102308.38;4939293;29;20031;-82
2023/10/01 01:01:59;;;;;;;9.68;5.65;;;;;;;12.71;87.75;102304.06;4953819;28;20062;-82
2023/10/01 01:04:28;;;;;;;8.48;5.78;;;;;;;12.68;87.80;102307.59;4951009;28;20384;-82
2023/10/01 01:06:54;;;;;;;9.38;5.28;;;;;;;12.65;87.57;102299.78;4940709;29;20023;-82
2023/10/01 01:09:20;;;;;;;11.65;5.60;;;;;;;12.63;87.90;102295.47;4939500;29;20070;-82
2023/10/01 01:11:46;;;;;;;9.68;5.53;;;;;;;12.60;87.95;102292.00;4939138;28;20534;-82
2023/10/01 01:14:11;;;;;;;9.68;5.28;;;;;;;12.60;88.04;102297.22;4945963;29;20039;-81
2023/10/01 01:16:38;;;;;;;8.32;5.55;;;;;;;12.59;87.77;102297.22;4941336;29;20035;-82
2023/10/01 01:19:04;;;;;;;8.82;5.28;;;;;;;12.56;87.55;102292.03;4936020;29;20020;-82
2023/10/01 01:21:30;;;;;;;8.05;4.80;;;;;;;12.56;87.54;102295.53;4950243;29;20054;-82
2023/10/01 01:23:57;;;;;;;8.75;5.03;;;;;;;12.55;87.86;102298.16;4956926;28;20054;-82
2023/10/01 01:26:23;;;;;;;7.88;5.15;;;;;;;12.53;87.54;102287.72;4957412;28;20391;-82
2023/10/01 01:28:48;;;;;;;8.77;5.32;;;;;;;12.53;87.77;102292.94;4957012;29;20037;-82
2023/10/01 01:31:14;;;;;;;7.43;4.90;;;;;;;12.52;87.99;102291.22;4956970;28;20023;-82
2023/10/01 01:33:52;;;;;;;8.85;4.93;;;;;;;12.51;87.86;102286.88;4956471;28;20062;-82
2023/10/01 01:36:19;;;;;;;9.88;5.00;;;;;;;12.52;87.59;102287.75;4954384;29;20127;-82
2023/10/01 01:39:12;;;;;;;8.38;5.03;;;;;;;12.51;87.60;102271.22;4946264;28;20075;-82
2023/10/01 01:41:47;;;;;;;7.53;4.80;;;;;;;12.50;87.72;102284.28;4955897;29;20078;-82
2023/10/01 01:44:14;;;;;;;6.70;4.50;;;;;;;12.50;87.56;102281.69;4955611;28;20024;-82
2023/10/01 01:46:49;;;;;;;9.77;4.72;;;;;;;12.48;87.38;102271.25;4956265;29;20023;-82
2023/10/01 01:49:19;;;;;;;8.88;5.18;;;;;;;12.47;87.60;102263.44;4955506;28;20394;-82
2023/10/01 01:52:03;;;;;;;8.15;4.68;;;;;;;12.45;87.40;102271.31;4962603;28;20122;-82
2023/10/01 01:54:31;;;;;;;7.60;4.50;;;;;;;12.44;87.43;102269.56;4955095;28;20023;-82
2023/10/01 01:56:56;;;;;;;9.15;5.28;;;;;;;12.43;87.27;102273.91;4952402;28;20028;-82
2023/10/01 01:59:24;;;;;;;8.18;4.90;;;;;;;12.42;87.58;102276.53;4942987;28;20031;-81
2023/10/01 02:01:51;;;;;;;9.00;4.53;;;;;;;12.43;87.58;102273.06;4955094;29;20023;-82
2023/10/01 02:04:17;;;;;;;7.85;4.50;;;;;;;12.41;87.89;102274.81;4956381;28;20425;-82
2023/10/01 02:06:45;;;;;;;7.30;4.53;;;;;;;12.39;87.66;102272.19;4955696;29;20030;-82
2023/10/01 02:09:19;;;;;;;8.48;4.90;;;;;;;12.40;87.73;102273.09;4951924;28;20039;-82
2023/10/01 02:11:48;;;;;;;7.97;4.82;;;;;;;12.36;87.61;102273.97;4954053;29;20038;-81
2023/10/01 02:14:30;;;;;;;6.53;4.00;;;;;;;12.35;87.89;102269.66;4956453;28;20070;-82
2023/10/01 02:17:03;;;;;;;9.60;4.90;;;;;;;12.33;87.82;102261.84;4954104;29;20094;-81
2023/10/01 02:19:29;;;;;;;9.05;4.32;;;;;;;12.30;87.90;102256.66;4955838;28;20035;-81
2023/10/01 02:22:05;;;;;;;8.15;4.70;;;;;;;12.25;87.83;102254.09;4946197;29;20372;-81
2023/10/01 02:24:44;;;;;;;8.02;4.18;;;;;;;12.21;87.89;102254.16;4954614;29;20128;-81
2023/10/01 02:27:11;;;;;;;8.00;4.43;;;;;;;12.17;87.91;102253.28;4950052;29;20055;-81
2023/10/01 02:29:45;;;;;;;7.93;4.25;;;;;;;12.16;87.90;102253.31;4937928;29;20027;-81
2023/10/01 02:32:14;;;;;;;8.25;4.43;;;;;;;12.15;88.14;102249.81;4948995;29;20050;-82
2023/10/01 02:34:40;;;;;;;8.30;4.20;;;;;;;12.12;88.29;102247.28;4954714;28;20122;-81
2023/10/01 02:37:06;;;;;;;8.10;4.35;;;;;;;12.11;88.20;102251.59;4944212;29;20368;-82
2023/10/01 02:39:32;;;;;;;6.78;4.07;;;;;;;12.08;88.37;102243.81;4937866;29;20028;-82
2023/10/01 02:42:44;;;;;;;7.35;4.32;;;;;;;12.09;88.59;102247.31;4939619;29;20505;-82
2023/10/01 02:44:47;;;;;;;7.93;4.30;;;;;;;12.08;88.31;102258.59;4941595;29;20098;-81
2023/10/01 02:47:18;;;;;;;6.88;4.28;;;;;;;12.05;88.42;102258.63;4947514;29;20395;-82
2023/10/01 02:49:48;;;;;;;7.20;3.78;;;;;;;12.06;88.67;102257.75;4945007;28;20041;-82
2023/10/01 02:52:36;;;;;;;7.17;4.30;;;;;;;12.07;88.81;102262.09;4955497;28;20042;-82
2023/10/01 02:55:17;;;;;;;6.45;3.83;;;;;;;12.06;88.63;102258.59;4954994;28;20322;-82
2023/10/01 02:57:43;;;;;;;6.10;3.97;;;;;;;12.06;88.40;102261.22;4952622;29;20035;-82
2023/10/01 03:00:31;;;;;;;6.35;4.10;;;;;;;12.05;88.57;102263.84;4944488;28;20299;-82
2023/10/01 03:02:57;;;;;;;6.90;3.72;;;;;;;12.05;88.64;102259.47;4949051;28;20038;-82
2023/10/01 03:05:28;;;;;;;7.80;4.20;;;;;;;12.04;88.46;102257.75;4945761;29;20023;-82
2023/10/01 03:07:54;;;;;;;7.95;4.15;;;;;;;12.04;88.69;102254.28;4955156;28;20031;-82
2023/10/01 03:10:26;;;;;;;7.18;4.10;;;;;;;12.02;88.56;102253.44;4944075;28;20027;-82
2023/10/01 03:12:57;;;;;;;7.85;4.05;;;;;;;11.99;88.73;102252.59;4950783;28;20106;-82
2023/10/01 03:15:27;;;;;;;6.90;3.88;;;;;;;11.98;88.81;102255.19;4946207;28;20079;-82
2023/10/01 03:17:58;;;;;;;6.85;3.95;;;;;;;11.96;88.88;102243.91;4949849;29;20494;-81
2023/10/01 03:23:07;;;;;;;7.75;3.97;;;;;;;11.94;89.05;102243.94;4944614;29;20650;-81
2023/10/01 03:25:42;;;;;;;7.35;3.95;;;;;;;11.92;89.01;102245.69;4953579;28;20035;-81
2023/10/01 03:28:25;;;;;;;8.55;4.40;;;;;;;11.91;89.20;102243.06;4957613;28;20110;-82
2023/10/01 03:31:01;;;;;;;6.88;3.95;;;;;;;11.89;89.17;102235.25;4966423;28;20031;-81
2023/10/01 03:33:29;;;;;;;6.50;3.83;;;;;;;11.86;89.00;102245.72;4951655;29;20431;-81
2023/10/01 03:35:57;;;;;;;6.50;3.92;;;;;;;11.84;89.41;102247.47;4951299;28;20043;-81
2023/10/01 03:38:23;;;;;;;8.15;3.80;;;;;;;11.82;90.25;102239.66;4951239;28;20038;-81
2023/10/01 03:41:02;;;;;;;6.35;3.88;;;;;;;11.80;89.80;102240.53;4949511;28;20026;-81
2023/10/01 03:43:37;;;;;;;6.40;3.80;;;;;;;11.78;89.83;102237.97;4949520;28;20079;-81
2023/10/01 03:46:13;;;;;;;7.30;3.80;;;;;;;11.77;89.71;102235.38;4954120;28;20431;-81
2023/10/01 03:48:58;;;;;;;6.20;3.83;;;;;;;11.76;89.94;102237.09;4949721;29;20384;-81
2023/10/01 03:51:29;;;;;;;5.95;3.38;;;;;;;11.75;89.87;102231.91;4954486;28;20102;-81
2023/10/01 03:54:06;;;;;;;6.75;3.67;;;;;;;11.74;89.76;102233.63;4952654;28;20019;-82
2023/10/01 03:56:33;;;;;;;6.70;3.58;;;;;;;11.73;90.11;102239.72;4953961;28;20122;-81
2023/10/01 03:58:59;;;;;;;7.50;3.85;;;;;;;11.69;90.04;102231.09;4952403;29;20143;-81
2023/10/01 04:01:58;;;;;;;7.18;3.72;;;;;;;11.70;90.37;102231.94;4943135;28;20443;-81
2023/10/01 04:04:20;;;;;;;6.55;3.63;;;;;;;11.69;90.16;102233.69;4938171;29;20430;-81
2023/10/01 04:06:46;;;;;;;6.13;3.33;;;;;;;11.68;90.17;102231.97;4945628;28;20024;-81
2023/10/01 04:09:11;;;;;;;6.03;3.80;;;;;;;11.66;90.24;102233.72;4952805;29;20102;-81
2023/10/01 04:11:49;;;;;;;7.03;3.45;;;;;;;11.66;90.28;102232.84;4954496;28;20078;-81
2023/10/01 04:14:17;;;;;;;6.90;3.80;;;;;;;11.65;90.30;102229.38;4947281;29;20483;-81
2023/10/01 04:16:48;;;;;;;7.30;3.72;;;;;;;11.63;90.26;102228.50;4952642;29;20427;-82
2023/10/01 04:19:18;;;;;;;6.10;3.60;;;;;;;11.63;90.41;102233.72;4936535;28;20395;-81
2023/10/01 04:21:50;;;;;;;7.55;3.60;;;;;;;11.63;90.65;102233.72;4935827;29;20396;-81
2023/10/01 04:24:16;;;;;;;;;;;;;;;11.64;89.77;102230.25;4951546;29;20027;-82
2023/10/01 04:26:42;;;;;;;7.75;3.50;;;;;;;11.61;90.44;102235.50;4953851;29;19914;-81
2023/10/01 04:29:08;;;;;;;7.25;3.33;;;;;;;11.61;90.32;102237.22;4952141;28;20027;-81
2023/10/01 04:31:47;;;;;;;7.05;3.35;;;;;;;11.60;90.51;102232.88;4953967;28;20027;-81
2023/10/01 04:34:14;;;;;;;7.80;3.63;;;;;;;11.60;90.69;102239.00;4947404;29;20090;-82
2023/10/01 04:36:43;;;;;;;8.18;4.00;;;;;;;11.59;90.88;102237.25;4942644;29;20095;-82
2023/10/01 04:39:09;;;;;;;6.10;3.55;;;;;;;11.59;90.67;102232.03;4952607;29;20102;-81
2023/10/01 04:41:34;;;;;;;7.78;3.67;;;;;;;11.59;91.00;102231.16;4953915;28;20463;-82
2023/10/01 04:44:07;;;;;;;7.38;3.50;;;;;;;11.60;90.72;102238.09;4953986;29;20023;-82
2023/10/01 04:46:37;;;;;;;5.95;3.38;;;;;;;11.59;91.02;102232.03;4938666;28;20020;-81
2023/10/01 04:49:26;;;;;;;8.02;3.90;;;;;;;11.61;90.89;102229.41;4934759;29;20039;-82
2023/10/01 04:51:53;;;;;;;6.82;3.55;;;;;;;11.60;90.64;102233.78;4953369;29;20115;-81
2023/10/01 04:54:21;;;;;;;6.85;3.80;;;;;;;11.61;90.73;102235.50;4953742;28;20031;-82
2023/10/01 04:56:50;;;;;;;10.15;3.80;;;;;;;11.61;90.63;102234.63;4948404;29;20386;-81
2023/10/01 04:59:16;;;;;;;7.15;3.40;;;;;;;11.60;90.76;102235.50;4957385;28;20114;-82
2023/10/01 05:01:41;;;;;;;6.05;3.78;;;;;;;11.61;90.85;102245.06;4943337;28;20483;-82
2023/10/01 05:04:11;;;;;;;6.82;3.63;;;;;;;11.59;90.45;102247.69;4936586;29;20031;-81
2023/10/01 05:06:40;;;;;;;7.43;3.22;;;;;;;11.59;90.58;102239.88;4946735;29;20458;-81
2023/10/01 05:09:07;;;;;;;7.22;3.60;;;;;;;11.58;90.46;102240.75;4948859;28;20031;-81
2023/10/01 05:11:33;;;;;;;8.18;3.50;;;;;;;11.58;90.57;102235.53;4947160;29;20020;-82
2023/10/01 05:13:58;;;;;;;6.30;3.45;;;;;;;11.58;90.59;102235.53;4943193;28;20050;-82
2023/10/01 05:16:27;;;;;;;6.00;3.35;;;;;;;11.58;90.65;102235.53;4941076;28;20083;-81
2023/10/01 05:19:10;;;;;;;7.57;3.88;;;;;;;11.58;90.56;102230.31;4945500;29;20210;-81
2023/10/01 05:21:48;;;;;;;7.68;3.42;;;;;;;11.58;90.67;102237.25;4947565;29;20462;-81
2023/10/01 05:24:16;;;;;;;5.75;3.25;;;;;;;11.57;90.89;102238.13;4951687;28;20574;-82
2023/10/01 05:26:43;;;;;;;8.15;3.30;;;;;;;11.56;90.81;102245.09;4942406;28;20538;-81
2023/10/01 05:29:09;;;;;;;8.82;3.65;;;;;;;11.57;90.75;102243.34;4940606;28;20031;-81
2023/10/01 05:31:35;;;;;;;7.45;3.15;;;;;;;11.57;90.73;102253.75;4938548;29;20098;-82
2023/10/01 05:34:00;;;;;;;5.70;3.00;;;;;;;11.56;91.09;102241.59;4938815;28;20046;-82
2023/10/01 05:36:26;;;;;;;6.90;3.20;;;;;;;11.57;90.77;102252.03;4938968;29;20483;-81
2023/10/01 05:38:53;;;;;;;7.07;3.33;;;;;;;11.56;90.53;102247.69;4952403;29;20027;-82
2023/10/01 05:41:29;;;;;;;7.65;3.70;;;;;;;11.56;90.81;102254.63;4934984;29;20028;-81
2023/10/01 05:43:55;;;;;;;7.07;3.63;;;;;;;11.56;90.78;102260.72;4946664;29;20558;-81
2023/10/01 05:46:22;;;;;;;7.30;3.53;;;;;;;11.56;90.72;102259.84;4937792;29;20019;-81
2023/10/01 05:48:49;;;;;;;5.68;3.30;;;;;;;11.56;91.05;102262.44;4950720;29;20039;-82
2023/10/01 05:51:18;;;;;;;8.48;3.30;;;;;;;11.58;91.05;102260.69;4934164;29;20494;-81
2023/10/01 05:53:46;;;;;;;7.22;3.50;;;;;;;11.56;91.10;102263.34;4951894;28;20114;-81
2023/10/01 05:56:17;;;;;;;5.50;3.25;;;;;;;11.58;91.27;102260.69;4950986;28;20474;-81
2023/10/01 05:58:44;;;;;;;5.95;3.40;;;;;;;11.56;91.49;102252.91;4952595;28;20035;-81
2023/10/01 06:01:16;;;;;;;7.68;3.53;;;;;;;11.56;91.08;102255.50;4953138;28;20027;-81
2023/10/01 06:03:44;;;;;;;9.63;3.95;;;;;;;11.56;91.48;102254.63;4948207;28;20110;-81
2023/10/01 06:06:14;;;;;;;6.65;3.17;;;;;;;11.57;91.50;102259.84;4943757;29;20123;-81
2023/10/01 06:08:46;;;;;;;6.47;3.38;;;;;;;11.59;91.49;102254.63;4941092;29;20372;-82
2023/10/01 06:11:15;;;;;;;6.72;3.40;;;;;;;11.59;91.65;102258.09;4937884;29;20470;-82
2023/10/01 06:13:49;;;;;;;7.47;3.20;;;;;;;11.61;91.58;102258.09;4937349;29;20579;-81
2023/10/01 06:16:23;;;;;;;6.82;3.35;;;;;;;11.62;91.75;102260.66;4956519;28;20027;-81
2023/10/01 06:18:50;;;;;;;6.93;3.55;;;;;;;11.65;92.08;102267.63;4956447;28;20027;-81
2023/10/01 06:21:20;;;;;;;6.35;3.20;;;;;;;11.65;92.09;102258.03;4955391;28;20554;-81
2023/10/01 06:23:49;;;;;;;7.60;3.53;;;;;;;11.69;92.17;102264.97;4955071;28;20058;-81
2023/10/01 06:26:22;;;;;;;9.20;3.28;;;;;;;11.72;92.29;102258.00;4947265;29;20030;-81
2023/10/01 06:28:49;;;;;;;7.93;3.58;;;;;;;11.75;92.06;102263.19;4955557;28;20083;-81
2023/10/01 06:31:20;;;;;;;7.20;3.53;;;;;;;11.78;92.18;102258.81;4952190;28;20023;-83
2023/10/01 06:33:46;;;;;;;7.32;3.63;;;;;;;11.81;92.19;102256.19;4946765;28;20106;-82
2023/10/01 06:36:15;;;;;;;7.60;3.58;;;;;;;11.83;92.31;102258.78;4947629;28;20051;-82
2023/10/01 06:38:43;;;;;;;8.57;3.65;;;;;;;11.88;92.60;102266.56;4950216;29;20394;-83
2023/10/01 06:41:13;;;;;;;7.15;3.50;;;;;;;11.92;92.46;102265.66;4948527;29;20042;-83
2023/10/01 06:43:49;;;;;;;9.20;3.83;;;;;;;11.97;92.56;102263.88;4948040;29;20116;-83
2023/10/01 06:46:15;;;;;;;6.47;3.30;;;;;;;12.01;92.46;102254.31;4941773;28;20024;-81
2023/10/01 06:48:42;;;;;;;7.57;3.70;;;;;;;12.04;92.70;102249.94;4952478;29;20563;-81
2023/10/01 06:51:07;;;;;;;7.32;3.55;;;;;;;12.09;92.78;102247.31;4955997;29;20035;-81
2023/10/01 06:53:48;;;;;;;9.05;3.85;;;;;;;12.11;93.00;102241.19;4955916;28;20027;-81
2023/10/01 06:56:17;;;;;;;7.20;3.10;;;;;;;12.16;92.86;102255.94;4942351;29;20089;-81
2023/10/01 06:59:12;;;;;;;6.60;3.08;;;;;;;12.20;92.56;102266.31;4939602;29;20024;-81
2023/10/01 07:01:42;;;;;;;8.15;3.83;;;;;;;12.25;92.62;102261.91;4944171;29;20126;-82
2023/10/01 07:04:08;;;;;;;8.23;3.47;;;;;;;12.29;93.34;102258.41;4953467;28;20375;-81
2023/10/01 07:06:37;;;;;;;7.68;3.90;;;;;;;12.34;93.28;102249.66;4954276;28;20114;-82
2023/10/01 07:09:07;;;;;;;7.07;3.45;;;;;;;12.38;92.99;102254.81;4951913;28;20035;-81
2023/10/01 07:11:33;;;;;;;6.97;3.47;;;;;;;12.43;93.28;102255.63;4950573;28;20035;-82
2023/10/01 07:13:59;;;;;;;6.65;3.50;;;;;;;12.48;93.42;102250.34;4955228;28;20038;-81
2023/10/01 07:16:39;;;;;;;8.82;3.78;;;;;;;12.52;93.28;102252.06;4954045;28;20114;-83
2023/10/01 07:19:13;;;;;;;7.90;3.70;;;;;;;12.56;93.51;102248.53;4955335;28;20027;-83
2023/10/01 07:21:45;;;;;;;7.80;3.67;;;;;;;12.60;92.88;102252.84;4946095;28;20086;-81
2023/10/01 07:24:10;;;;;;;;;;;;;;;12.67;92.02;102256.25;4954462;28;20034;-82
2023/10/01 07:26:40;;;;;;;8.00;3.50;;;;;;;12.70;92.74;102252.72;4955011;29;19914;-82
2023/10/01 07:29:06;;;;;;;6.32;3.28;;;;;;;12.74;93.06;102249.22;4953679;29;20031;-82
2023/10/01 07:31:35;;;;;;;8.90;3.90;;;;;;;12.79;93.23;102257.84;4940631;28;20027;-81
2023/10/01 07:34:01;;;;;;;6.95;3.47;;;;;;;12.84;93.49;102263.03;4952702;28;20035;-82
2023/10/01 07:36:27;;;;;;;7.38;3.53;;;;;;;12.89;93.46;102267.28;4953355;28;20179;-82
2023/10/01 07:38:56;;;;;;;9.57;4.15;;;;;;;12.95;93.66;102265.50;4955116;28;20185;-82
2023/10/01 07:41:23;;;;;;;9.20;4.28;;;;;;;13.00;93.59;102263.66;4953700;29;20034;-82
2023/10/01 07:43:49;;;;;;;9.38;4.00;;;;;;;13.06;93.55;102263.59;4949887;28;20023;-83
2023/10/01 07:46:15;;;;;;;8.05;3.67;;;;;;;13.11;93.71;102264.41;4939559;28;20034;-81
2023/10/01 07:48:47;;;;;;;7.70;3.90;;;;;;;13.18;93.30;102271.25;4953604;29;20087;-81
2023/10/01 07:51:22;;;;;;;;;;;;;;;13.26;92.61;102262.47;4953836;29;20031;-81
2023/10/01 07:53:49;;;;;;;8.70;3.58;;;;;;;13.32;94.08;102276.31;4953925;28;19915;-82
2023/10/01 07:56:15;;;;;;;8.27;3.90;;;;;;;13.39;93.06;102277.09;4935325;29;20038;-83
2023/10/01 07:58:47;;;;;;;8.68;3.72;;;;;;;13.46;93.15;102284.00;4935799;29;20023;-81
2023/10/01 08:03:57;;;;;;;11.90;4.20;;;;;;;13.62;93.15;102270.69;4942951;29;20123;-82
2023/10/01 08:06:31;;;;;;;10.23;4.15;;;;;;;13.70;93.77;102267.94;4949646;29;20098;-82
2023/10/01 08:08:58;;;;;;;9.27;3.97;;;;;;;13.77;93.28;102267.81;4952405;29;20030;-82
2023/10/01 08:14:33;;;;;;;8.55;3.97;;;;;;;13.90;93.20;102271.09;4876502;29;20393;-82
2023/10/01 08:17:00;;;;;;;9.57;3.90;;;;;;;13.95;92.03;102261.41;4876337;29;20049;-82
2023/10/01 08:19:41;;;;;;;9.20;4.32;;;;;;;14.04;92.57;102265.63;4904697;29;20046;-81
2023/10/01 08:22:13;;;;;;;9.10;4.45;;;;;;;14.09;92.22;102268.19;4952852;29;20422;-82
2023/10/01 08:24:39;;;;;;;10.98;4.07;;;;;;;14.16;92.48;102275.00;4954186;28;20045;-82
2023/10/01 08:27:12;;;;;;;8.90;4.05;;;;;;;14.22;92.32;102276.66;4951759;28;20027;-82
2023/10/01 08:32:29;;;;;;;9.65;3.90;;;;;;;14.36;92.31;102279.88;4942148;29;20502;-83
2023/10/01 08:37:31;;;;;;;10.15;4.35;;;;;;;14.50;91.87;102279.63;4945744;29;20537;-81
2023/10/01 08:39:57;;;;;;;9.00;4.03;;;;;;;14.59;91.60;102288.22;4953881;28;20436;-83
2023/10/01 08:42:28;;;;;;;12.73;4.28;;;;;;;14.65;91.61;102288.94;4953747;28;20109;-83
2023/10/01 08:45:02;;;;;;;8.77;3.85;;;;;;;14.72;90.98;102282.72;4941258;28;20035;-82
2023/10/01 08:47:37;;;;;;;8.70;3.95;;;;;;;14.80;90.30;102292.19;4943382;28;20110;-82
2023/10/01 08:50:27;;;;;;;8.68;3.85;;;;;;;14.89;91.08;102283.28;4952229;28;20023;-82
2023/10/01 08:52:55;;;;;;;10.68;4.40;;;;;;;14.96;89.94;102280.50;4949197;28;20035;-83
2023/10/01 08:55:35;;;;;;;10.68;3.90;;;;;;;15.05;90.12;102279.44;4942000;29;20047;-83
2023/10/01 08:58:14;;;;;;;10.45;4.60;;;;;;;15.12;89.63;102277.53;4961433;28;20031;-82
2023/10/01 09:00:52;;;;;;;10.18;4.30;;;;;;;15.20;89.85;102280.84;4942511;29;20035;-82
2023/10/01 09:03:28;;;;;;;11.07;4.40;;;;;;;15.28;89.02;102288.56;4940893;28;20031;-82
2023/10/01 09:06:04;;;;;;;12.35;4.57;;;;;;;15.36;88.93;102276.13;4949838;29;20471;-83
2023/10/01 09:08:45;;;;;;;9.32;4.15;;;;;;;15.47;89.68;102275.88;4942908;28;20027;-82
2023/10/01 09:11:13;;;;;;;9.25;4.45;;;;;;;15.58;89.67;102280.88;4943003;28;20032;-84
2023/10/01 09:14:15;;;;;;;11.65;4.50;;;;;;;15.68;88.36;102273.66;4951519;28;20046;-82
2023/10/01 09:16:43;;;;;;;11.63;4.38;;;;;;;15.78;88.00;102272.53;4939041;28;20038;-83
2023/10/01 09:21:55;;;;;;;9.63;4.30;;;;;;;16.00;87.51;102266.78;4950564;29;20039;-83
2023/10/01 09:24:38;;;;;;;10.50;4.45;;;;;;;16.05;87.49;102264.91;4944909;29;20461;-83
2023/10/01 09:27:21;;;;;;;11.13;4.70;;;;;;;16.11;87.66;102275.22;4964310;28;20066;-82
2023/10/01 09:29:48;;;;;;;10.15;4.22;;;;;;;16.17;88.52;102268.94;4949138;29;20109;-83
2023/10/01 09:32:14;;;;;;;10.30;4.63;;;;;;;16.22;88.96;102267.06;4939966;28;20032;-84
2023/10/01 09:34:53;;;;;;;10.52;4.60;;;;;;;16.27;88.66;102262.56;4942693;29;20047;-84
2023/10/01 09:37:34;;;;;;;10.63;4.53;;;;;;;16.29;87.98;102258.13;4947801;29;20463;-84
2023/10/01 09:40:13;;;;;;;;;;;;;;;16.33;87.99;102258.91;4937743;29;20055;-83
2023/10/01 09:42:45;;;;;;;7.88;4.00;;;;;;;16.36;88.53;102258.81;4944355;29;19915;-82
2023/10/01 09:45:26;;;;;;;11.77;4.70;;;;;;;16.40;87.56;102255.19;4946578;29;20023;-82
2023/10/01 09:48:01;;;;;;;12.30;4.40;;;;;;;16.42;88.06;102255.16;4948002;29;20028;-82
2023/10/01 09:50:27;;;;;;;11.02;4.65;;;;;;;16.43;87.95;102262.97;4947907;29;20033;-82
2023/10/01 09:52:59;;;;;;;11.43;4.78;;;;;;;16.46;88.19;102260.28;4946531;28;20150;-82
2023/10/01 09:55:29;;;;;;;9.15;4.40;;;;;;;16.50;88.09;102251.41;4947188;29;20034;-82
2023/10/01 09:57:55;;;;;;;10.20;4.75;;;;;;;16.56;88.63;102253.00;4945036;28;20098;-82
2023/10/01 10:00:21;;;;;;;10.27;4.80;;;;;;;16.59;87.63;102259.94;4941413;29;20042;-82
2023/10/01 10:02:51;;;;;;;12.98;5.50;;;;;;;16.63;87.90;102254.56;4943011;28;20078;-83
2023/10/01 10:05:28;;;;;;;10.75;5.38;;;;;;;16.66;87.60;102262.34;4940508;29;20038;-80
2023/10/01 10:07:55;;;;;;;11.05;4.80;;;;;;;16.71;87.84;102263.97;4942297;29;20678;-82
2023/10/01 10:10:25;;;;;;;9.90;4.68;;;;;;;16.75;87.25;102255.94;4942930;29;20016;-80
2023/10/01 10:12:58;;;;;;;10.57;5.00;;;;;;;16.81;88.18;102254.94;4948507;28;20091;-81
2023/10/01 10:15:56;;;;;;;10.82;4.53;;;;;;;16.90;88.01;102254.66;4944238;29;20036;-80
2023/10/01 10:18:23;;;;;;;10.77;4.28;;;;;;;16.97;88.69;102250.97;4950333;29;20055;-82
2023/10/01 10:21:05;;;;;;;10.35;4.78;;;;;;;17.05;88.49;102242.84;4945331;29;20505;-83
2023/10/01 10:23:52;;;;;;;11.38;4.82;;;;;;;17.11;88.24;102247.91;4949359;28;20036;-83
2023/10/01 10:26:56;;;;;;;10.85;4.60;;;;;;;17.20;87.74;102245.91;4947249;28;20031;-81
2023/10/01 10:29:46;;;;;;;9.57;4.00;;;;;;;17.26;87.41;102241.31;4886544;29;20032;-82
2023/10/01 10:32:12;;;;;;;11.13;4.68;;;;;;;17.33;87.04;102247.25;4888928;29;20493;-81
2023/10/01 10:34:47;;;;;;;11.05;4.45;;;;;;;17.39;86.50;102236.53;4922693;28;20054;-80
2023/10/01 10:37:39;;;;;;;10.43;4.78;;;;;;;17.45;86.64;102236.31;4942253;29;20031;-80
2023/10/01 10:40:27;;;;;;;10.82;4.55;;;;;;;17.53;86.63;102236.06;4953930;29;20031;-81
2023/10/01 10:42:57;;;;;;;10.88;4.65;;;;;;;17.63;87.37;102234.00;4954354;28;20058;-81
2023/10/01 10:45:45;;;;;;;9.15;4.30;;;;;;;17.70;84.55;102227.63;4947561;29;20041;-81
2023/10/01 10:48:14;;;;;;;9.93;4.35;;;;;;;17.79;86.51;102233.47;4953580;29;20534;-81
2023/10/01 10:50:56;;;;;;;10.55;4.38;;;;;;;17.84;84.92;102224.53;4950339;28;20109;-81
2023/10/01 10:53:39;;;;;;;9.70;4.00;;;;;;;17.91;85.05;102227.81;4950411;28;20110;-80
2023/10/01 10:56:10;;;;;;;11.30;4.60;;;;;;;17.97;84.64;102226.72;4946982;28;20043;-81
2023/10/01 10:58:44;;;;;;;10.07;4.22;;;;;;;18.00;85.00;102224.03;4947259;29;20039;-80
2023/10/01 11:01:20;;;;;;;9.32;4.38;;;;;;;18.05;84.07;102224.69;4946455;29;20427;-81
2023/10/01 11:03:50;;;;;;;12.35;4.53;;;;;;;18.13;84.16;102227.06;4947569;28;20077;-81
2023/10/01 11:06:16;;;;;;;10.82;4.53;;;;;;;18.20;83.54;102226.78;4948412;29;20044;-81
2023/10/01 11:08:52;;;;;;;11.05;4.63;;;;;;;18.27;81.48;102229.22;4948315;28;20023;-84
2023/10/01 11:11:39;;;;;;;11.43;4.50;;;;;;;18.33;81.77;102224.59;4951280;29;20085;-83
2023/10/01 11:14:16;;;;;;;9.20;4.03;;;;;;;18.40;82.55;102221.72;4951098;28;20034;-82
2023/10/01 11:16:44;;;;;;;9.90;4.28;;;;;;;18.47;81.82;102216.19;4947573;28;20028;-82
2023/10/01 11:19:13;;;;;;;12.45;4.45;;;;;;;18.56;80.04;102212.34;4947257;28;20044;-82
2023/10/01 11:21:55;;;;;;;10.38;4.93;;;;;;;18.64;80.81;102212.88;4946962;29;20037;-83
2023/10/01 11:24:29;;;;;;;8.93;4.28;;;;;;;18.70;81.02;102205.69;4947702;28;20035;-82
2023/10/01 11:27:25;;;;;;;10.20;4.60;;;;;;;18.76;80.87;102194.91;4950171;28;20050;-82
2023/10/01 11:30:20;;;;;;;10.55;4.55;;;;;;;18.84;80.86;102197.25;4949052;29;20027;-82
2023/10/01 11:35:31;;;;;;;8.93;4.25;;;;;;;19.01;78.18;102199.22;4951936;29;20062;-82
2023/10/01 11:38:07;;;;;;;9.48;4.32;;;;;;;19.08;78.92;102195.44;4949936;28;20035;-82
2023/10/01 11:43:41;;;;;;;8.20;3.88;;;;;;;19.23;79.39;102188.66;4917907;28;20042;-83
2023/10/01 11:46:24;;;;;;;12.68;4.30;;;;;;;19.29;79.13;102182.31;4946807;28;21017;-83
2023/10/01 11:48:56;;;;;;;11.45;4.18;;;;;;;19.33;77.38;102189.16;4943481;29;20034;-83
2023/10/01 11:52:01;;;;;;;10.75;4.28;;;;;;;19.38;78.03;102187.19;4945671;29;20066;-83
2023/10/01 11:54:43;;;;;;;10.35;4.32;;;;;;;19.42;76.70;102188.78;4948165;28;20119;-83
2023/10/01 11:57:27;;;;;;;9.63;4.20;;;;;;;19.46;75.14;102178.94;4945252;29;20040;-83
2023/10/01 11:59:58;;;;;;;9.65;3.75;;;;;;;19.52;76.09;102179.56;4941166;29;20066;-83
2023/10/01 12:02:33;;;;;;;9.57;4.20;;;;;;;19.58;75.18;102178.44;4942537;28;20045;-83
2023/10/01 12:05:06;;;;;;;9.23;4.15;;;;;;;19.66;75.52;102178.09;4946390;29;20063;-83
2023/10/01 12:07:44;;;;;;;9.57;4.03;;;;;;;19.74;74.09;102164.56;4944350;29;20595;-83